Time;durP1;ratioP1;P1;durP2;ratioP2;P2;SDS_P1;SDS_P2;PMS_P1;PMS_P2;Temp;Humidity;BMP_temperature;BMP_pressure;BME280_temperature;BME280_humidity;BME280_pressure;Samples;Min_cycle;Max_cycle;Signal;HPM_P1;HPM_P2
2022/04/05 00:01:39;;;;;;;14.23;8.87;;;;;;;8.56;64.71;96941.81;6270671;22;20179;-96
2022/04/05 00:04:06;;;;;;;16.30;10.10;;;;;;;8.43;65.70;96921.75;6271260;22;20631;-92
2022/04/05 00:06:37;;;;;;;15.73;10.20;;;;;;;8.40;65.58;96908.94;6249853;22;20506;-90
2022/04/05 00:09:04;;;;;;;18.23;9.77;;;;;;;8.57;65.29;96940.91;6271571;22;20168;-93
2022/04/05 00:11:30;;;;;;;12.17;8.50;;;;;;;8.30;65.28;96907.63;6270158;22;20230;-94
2022/04/05 00:14:00;;;;;;;10.53;7.40;;;;;;;8.30;65.20;96910.19;6272720;22;20195;-95
2022/04/05 00:16:30;;;;;;;8.87;7.07;;;;;;;8.37;65.31;96921.94;6272595;22;20169;-95
2022/04/05 00:18:58;;;;;;;9.77;7.03;;;;;;;8.29;64.40;96901.63;6291944;22;20161;-88
2022/04/05 00:21:27;;;;;;;9.23;6.63;;;;;;;8.40;64.85;96908.94;6289002;22;20179;-92
2022/04/05 00:23:54;;;;;;;11.13;7.43;;;;;;;8.32;65.34;96918.72;6274668;22;20165;-90
2022/04/05 00:26:21;;;;;;;11.27;7.93;;;;;;;8.11;65.47;96920.34;6272346;22;20236;-86
2022/04/05 00:28:48;;;;;;;12.43;8.73;;;;;;;7.55;66.49;96870.91;6276689;22;20201;-89
2022/04/05 00:31:57;;;;;;;15.07;9.90;;;;;;;6.49;68.62;96782.00;6271389;22;20169;-91
2022/04/05 00:34:25;;;;;;;15.23;9.83;;;;;;;7.28;69.12;96921.69;6270162;22;20169;-86
2022/04/05 00:36:53;;;;;;;16.23;9.73;;;;;;;7.36;69.34;96903.38;6271420;22;20232;-86
2022/04/05 00:39:21;;;;;;;14.60;9.90;;;;;;;7.27;69.18;96919.16;6270641;22;20250;-89
2022/04/05 00:41:48;;;;;;;16.63;9.77;;;;;;;7.25;69.47;96923.53;6270167;22;20172;-89
2022/04/05 00:44:17;;;;;;;16.40;10.17;;;;;;;7.19;69.45;96919.41;6270460;22;20165;-87
2022/04/05 00:46:45;;;;;;;17.07;10.43;;;;;;;7.12;69.25;96909.38;6268327;22;20168;-89
2022/04/05 00:49:22;;;;;;;14.87;9.87;;;;;;;6.94;69.87;96897.13;6268699;22;20525;-87
2022/04/05 00:51:51;;;;;;;11.47;8.80;;;;;;;7.02;69.42;96900.28;6219051;22;20172;-89
2022/04/05 00:54:21;;;;;;;13.23;9.67;;;;;;;7.11;68.81;96905.97;6244209;22;20624;-90
2022/04/05 00:56:52;;;;;;;13.30;8.30;;;;;;;7.32;68.92;96899.22;6270896;22;20217;-91
2022/04/05 00:59:20;;;;;;;15.33;9.37;;;;;;;7.46;67.90;96901.31;6243020;22;20171;-89
2022/04/05 01:01:50;;;;;;;12.30;8.90;;;;;;;7.31;67.43;96864.06;6243192;22;20586;-88
2022/04/05 01:04:17;;;;;;;14.13;9.33;;;;;;;7.43;67.18;96876.50;6270421;22;20190;-89
2022/04/05 01:06:47;;;;;;;13.37;8.80;;;;;;;7.52;67.31;96890.81;6271045;22;20172;-92
2022/04/05 01:09:17;;;;;;;12.30;9.03;;;;;;;7.39;68.47;96869.78;6243815;22;20218;-91
2022/04/05 01:11:45;;;;;;;11.77;8.33;;;;;;;7.46;67.08;96860.09;6271843;22;20235;-93
2022/04/05 01:14:12;;;;;;;13.80;9.30;;;;;;;7.74;66.91;96881.38;6271338;22;20616;-93
2022/04/05 01:16:41;;;;;;;13.03;9.17;;;;;;;7.93;66.25;96895.28;6256181;22;20180;-88
2022/04/05 01:19:11;;;;;;;12.20;8.80;;;;;;;7.24;65.64;96793.06;6284087;22;20164;-93
2022/04/05 01:21:38;;;;;;;13.20;9.97;;;;;;;7.24;65.81;96793.91;6271135;22;20188;-92
2022/04/05 01:24:14;;;;;;;16.43;10.30;;;;;;;7.68;66.81;96861.00;6271890;22;20160;-94
2022/04/05 01:26:44;;;;;;;12.50;9.83;;;;;;;7.78;67.47;96886.38;6271323;22;20632;-93
2022/04/05 01:29:12;;;;;;;13.37;9.43;;;;;;;7.91;66.17;96882.41;6244629;22;20160;-95
2022/04/05 01:31:43;;;;;;;15.73;10.70;;;;;;;7.82;66.39;96874.19;6271060;22;20620;-95
2022/04/05 01:34:13;;;;;;;14.37;9.67;;;;;;;7.82;66.85;96871.63;6271090;22;20640;-94
2022/04/05 01:36:41;;;;;;;14.50;9.03;;;;;;;7.53;67.84;96836.63;6271774;22;20169;-94
2022/04/05 01:39:11;;;;;;;13.70;9.53;;;;;;;7.78;66.59;96888.09;6218916;22;20185;-95
2022/04/05 01:41:38;;;;;;;13.20;9.63;;;;;;;7.62;67.28;96887.84;6270173;22;20178;-89
2022/04/05 01:44:08;;;;;;;14.53;10.33;;;;;;;7.47;68.21;96887.53;6269892;22;20188;-90
2022/04/05 01:46:35;;;;;;;13.63;9.17;;;;;;;7.15;69.17;96878.38;6242920;22;20178;-87
2022/04/05 01:49:07;;;;;;;14.27;9.17;;;;;;;6.72;70.45;96808.69;6269959;22;20204;-87
2022/04/05 01:51:37;;;;;;;13.43;9.70;;;;;;;6.93;70.02;96856.84;6243610;22;20187;-92
2022/04/05 01:54:09;;;;;;;15.20;9.43;;;;;;;7.09;69.44;96855.44;6270650;22;20214;-93
2022/04/05 01:56:47;;;;;;;14.60;10.00;;;;;;;7.31;69.99;96882.09;6271014;22;20174;-90
2022/04/05 01:59:18;;;;;;;13.83;9.63;;;;;;;7.27;68.73;96875.38;6271125;22;20719;-93
2022/04/05 02:01:45;;;;;;;11.57;8.40;;;;;;;6.98;68.78;96855.81;6244166;22;20168;-92
2022/04/05 02:04:14;;;;;;;11.03;8.90;;;;;;;7.06;69.71;96870.97;6243844;22;20165;-91
2022/04/05 02:06:43;;;;;;;13.17;9.80;;;;;;;7.04;69.87;96872.75;6271548;22;20223;-94
2022/04/05 02:09:15;;;;;;;17.17;10.27;;;;;;;6.92;70.05;96842.28;6270745;22;20245;-92
2022/04/05 02:11:45;;;;;;;16.00;10.70;;;;;;;7.09;69.69;96871.69;6271223;22;20565;-94
2022/04/05 02:14:31;;;;;;;21.60;12.67;;;;;;;6.94;70.21;96858.53;6285348;22;20168;-89
2022/04/05 02:17:01;;;;;;;20.83;13.00;;;;;;;6.71;71.03;96851.59;6254825;22;20160;-94
2022/04/05 02:19:29;;;;;;;18.87;12.33;;;;;;;6.49;71.64;96832.63;6244454;22;20172;-95
2022/04/05 02:21:57;;;;;;;20.27;11.87;;;;;;;6.52;70.81;96847.94;6271941;22;20199;-91
2022/04/05 02:24:27;;;;;;;17.47;11.43;;;;;;;6.85;70.63;96846.81;6219370;22;20249;-88
2022/04/05 02:26:58;;;;;;;17.20;10.60;;;;;;;7.15;70.45;96866.34;6242170;22;20174;-86
2022/04/05 02:29:26;;;;;;;18.07;10.83;;;;;;;7.19;68.06;96833.63;6242234;22;20288;-85
2022/04/05 02:32:00;;;;;;;16.17;10.97;;;;;;;7.39;68.11;96844.03;6217811;22;20244;-91
2022/04/05 02:34:28;;;;;;;14.30;9.77;;;;;;;7.46;68.26;96850.63;6244841;22;20265;-87
2022/04/05 02:36:59;;;;;;;14.87;10.50;;;;;;;7.59;68.57;96862.16;6244595;22;20239;-87
2022/04/05 02:39:28;;;;;;;16.67;11.73;;;;;;;7.33;68.34;96823.66;6272145;22;20169;-90
2022/04/05 02:42:00;;;;;;;15.53;10.93;;;;;;;7.22;68.14;96824.03;6221290;22;20243;-88
2022/04/05 02:44:30;;;;;;;16.20;11.03;;;;;;;7.08;69.80;96843.44;6248856;22;20655;-88
2022/04/05 02:47:04;;;;;;;16.20;10.57;;;;;;;7.03;69.75;96825.56;6248951;22;20239;-88
2022/04/05 02:49:35;;;;;;;14.47;10.80;;;;;;;7.21;69.51;96842.94;6246008;22;20939;-87
2022/04/05 02:52:06;;;;;;;15.87;11.40;;;;;;;7.19;68.84;96836.19;6244841;22;20173;-86
2022/04/05 02:54:44;;;;;;;18.00;11.97;;;;;;;7.18;68.13;96829.34;6245029;22;20509;-89
2022/04/05 02:57:15;;;;;;;19.40;12.53;;;;;;;6.99;69.56;96859.19;6244460;22;20563;-86
2022/04/05 02:59:43;;;;;;;16.87;11.33;;;;;;;6.73;69.41;96836.09;6244331;22;20172;-85
2022/04/05 03:02:10;;;;;;;15.10;10.60;;;;;;;6.59;70.49;96809.09;6271220;22;20216;-85
2022/04/05 03:04:39;;;;;;;14.63;10.47;;;;;;;6.81;70.43;96849.53;6244044;22;20168;-89
2022/04/05 03:07:09;;;;;;;16.13;11.40;;;;;;;6.85;70.16;96835.66;6244067;22;20175;-86
2022/04/05 03:09:38;;;;;;;20.57;13.03;;;;;;;6.85;70.56;96851.97;6243892;22;20167;-86
2022/04/05 03:12:07;;;;;;;20.50;12.43;;;;;;;6.88;69.84;96851.88;6254397;22;20168;-88
2022/04/05 03:14:39;;;;;;;19.07;12.50;;;;;;;6.62;69.63;96815.88;6254609;22;20161;-90
2022/04/05 03:17:09;;;;;;;18.90;11.97;;;;;;;6.42;70.80;96823.41;6246083;22;20168;-86
2022/04/05 03:19:37;;;;;;;16.87;11.10;;;;;;;6.35;71.54;96825.34;6220724;22;20237;-91
2022/04/05 03:22:09;;;;;;;20.37;13.13;;;;;;;6.62;71.07;96835.59;6221870;22;20166;-89
2022/04/05 03:24:37;;;;;;;17.77;11.03;;;;;;;6.73;70.17;96836.09;6271168;22;20171;-86
2022/04/05 03:27:06;;;;;;;16.07;11.57;;;;;;;6.98;69.74;96847.22;6243621;22;20183;-88
2022/04/05 03:29:37;;;;;;;17.17;12.13;;;;;;;6.79;69.92;96810.16;6243227;22;20914;-83
2022/04/05 03:32:06;;;;;;;19.13;11.80;;;;;;;7.00;69.58;96824.84;6218746;22;20177;-84
2022/04/05 03:34:33;;;;;;;22.37;11.23;;;;;;;7.04;69.04;96837.56;6244324;22;20594;-89
2022/04/05 03:37:01;;;;;;;15.83;11.10;;;;;;;7.00;70.25;96846.28;6244437;22;20186;-88
2022/04/05 03:39:29;;;;;;;16.67;10.03;;;;;;;6.85;69.56;96820.22;6243666;22;20672;-93
2022/04/05 03:41:57;;;;;;;15.60;10.67;;;;;;;6.66;69.40;96798.63;6244305;22;20212;-88
2022/04/05 03:44:25;;;;;;;19.40;11.40;;;;;;;6.62;70.33;96827.88;6244883;22;20194;-88
2022/04/05 03:46:56;;;;;;;15.77;11.10;;;;;;;6.63;71.47;96850.16;6245786;22;20165;-93
2022/04/05 03:49:28;;;;;;;15.40;10.93;;;;;;;6.62;71.24;96833.88;6251313;22;20199;-90
2022/04/05 03:51:58;;;;;;;20.50;12.00;;;;;;;6.74;70.78;96835.22;6225795;22;20871;-89
2022/04/05 03:54:26;;;;;;;18.40;11.43;;;;;;;6.84;70.22;96844.28;6243804;22;20194;-89
2022/04/05 03:56:59;;;;;;;16.23;11.30;;;;;;;6.70;70.72;96841.34;6245361;22;20194;-94
2022/04/05 03:59:26;;;;;;;16.27;11.37;;;;;;;6.75;70.89;96839.44;6271159;22;20167;-87
2022/04/05 04:01:53;;;;;;;17.87;11.83;;;;;;;6.93;70.38;96841.38;6194677;22;20187;-88
2022/04/05 04:04:22;;;;;;;19.57;11.67;;;;;;;6.69;70.82;96813.94;6245064;22;20164;-92
2022/04/05 04:06:51;;;;;;;19.00;11.77;;;;;;;6.65;70.85;96818.34;6199280;22;20198;-85
2022/04/05 04:09:19;;;;;;;18.70;12.40;;;;;;;6.78;70.93;96857.38;6225369;22;20587;-89
2022/04/05 04:11:50;;;;;;;21.27;12.47;;;;;;;6.68;70.97;96861.16;6276006;22;20178;-88
2022/04/05 04:14:20;;;;;;;25.23;13.83;;;;;;;6.72;71.72;96852.44;6275914;22;20159;-90
2022/04/05 04:16:49;;;;;;;22.30;13.30;;;;;;;6.80;70.42;96835.00;6275661;22;20155;-91
2022/04/05 04:19:18;;;;;;;21.30;11.90;;;;;;;6.87;70.74;96850.16;6276604;22;20179;-92
2022/04/05 04:21:45;;;;;;;21.43;12.37;;;;;;;6.99;71.16;96859.19;6301931;22;20165;-92
2022/04/05 04:24:14;;;;;;;18.43;11.47;;;;;;;6.81;69.88;96822.06;6275319;22;20159;-88
2022/04/05 04:26:41;;;;;;;21.77;11.83;;;;;;;7.06;71.20;96850.38;6273860;22;20163;-85
2022/04/05 04:29:08;;;;;;;31.47;11.97;;;;;;;6.89;69.53;96808.94;6296118;22;20218;-87
2022/04/05 04:31:37;;;;;;;27.77;15.17;;;;;;;6.88;70.95;96856.16;6272054;22;20164;-85
2022/04/05 04:34:06;;;;;;;24.97;13.50;;;;;;;6.67;71.28;96860.31;6245835;22;20178;-88
2022/04/05 04:36:34;;;;;;;25.17;14.77;;;;;;;6.47;72.32;96842.13;6267859;22;20186;-85
2022/04/05 04:39:02;;;;;;;31.63;17.20;;;;;;;6.47;71.89;96818.97;6293444;22;20160;-92
2022/04/05 04:41:31;;;;;;;22.23;15.43;;;;;;;6.69;71.89;96826.78;6228742;22;20177;-90
2022/04/05 04:44:01;;;;;;;38.23;16.73;;;;;;;6.98;71.87;96849.81;6251455;22;20179;-94
2022/04/05 04:46:30;;;;;;;40.43;18.67;;;;;;;7.09;71.44;96860.59;6252068;22;20230;-92
2022/04/05 04:48:59;;;;;;;38.33;18.43;;;;;;;7.03;72.18;96842.75;6280600;22;20220;-93
2022/04/05 04:51:28;;;;;;;35.50;17.80;;;;;;;7.00;71.53;96832.56;6232918;22;20199;-91
2022/04/05 04:53:56;;;;;;;36.27;17.20;;;;;;;7.30;71.45;96859.81;6294376;22;20165;-94
2022/04/05 04:56:40;;;;;;;34.03;18.27;;;;;;;7.42;71.05;96868.84;6293419;22;20186;-93
2022/04/05 04:59:07;;;;;;;27.77;16.23;;;;;;;7.55;69.11;96860.59;6297873;22;20157;-94
2022/04/05 05:01:36;;;;;;;30.07;18.90;;;;;;;7.22;69.85;96856.66;6297076;22;20155;-87
2022/04/05 05:04:05;;;;;;;29.03;17.20;;;;;;;6.99;70.41;96844.59;6296646;22;20168;-85
2022/04/05 05:06:32;;;;;;;31.77;17.70;;;;;;;6.85;70.46;96835.66;6287340;22;20249;-86
2022/04/05 05:08:59;;;;;;;24.13;15.90;;;;;;;7.08;70.22;96849.44;6292277;22;20192;-85
2022/04/05 05:11:26;;;;;;;24.23;14.67;;;;;;;7.14;68.85;96835.50;6285169;22;20171;-91
2022/04/05 05:13:54;;;;;;;27.57;14.60;;;;;;;7.48;69.53;96873.78;6256212;22;20589;-94
2022/04/05 05:16:22;;;;;;;30.53;14.03;;;;;;;7.67;68.44;96880.75;6277545;22;20164;-96
2022/04/05 05:18:50;;;;;;;25.57;14.63;;;;;;;7.42;68.42;96843.09;6247398;22;20770;-95
2022/04/05 05:21:19;;;;;;;25.57;14.47;;;;;;;7.18;68.95;96844.78;6273495;22;20164;-95
2022/04/05 05:23:46;;;;;;;21.97;11.87;;;;;;;7.41;68.89;96883.44;6248496;22;20168;-91
2022/04/05 05:26:18;;;;;;;23.87;13.80;;;;;;;7.54;68.63;96868.41;6275076;22;20215;-86
2022/04/05 05:28:48;;;;;;;23.10;12.83;;;;;;;7.57;68.91;96857.97;6277027;22;20259;-88
2022/04/05 05:31:19;;;;;;;21.77;12.67;;;;;;;7.65;68.64;96886.84;6248039;22;20204;-88
2022/04/05 05:33:49;;;;;;;21.77;13.80;;;;;;;7.25;67.58;96848.84;6274394;22;20203;-89
2022/04/05 05:36:20;;;;;;;21.57;13.03;;;;;;;7.35;68.70;96874.22;6248861;22;20176;-95
2022/04/05 05:38:48;;;;;;;28.33;16.30;;;;;;;7.09;68.86;96829.69;6274520;22;20159;-94
2022/04/05 05:41:15;;;;;;;22.83;15.47;;;;;;;7.29;68.79;96868.44;6273947;22;20172;-90
2022/04/05 05:43:45;;;;;;;22.70;14.60;;;;;;;7.34;69.14;96875.09;6248100;22;20176;-95
2022/04/05 05:46:13;;;;;;;22.40;12.87;;;;;;;7.31;68.68;96856.34;6249966;22;20520;-93
2022/04/05 05:48:41;;;;;;;24.53;13.23;;;;;;;7.63;69.78;96884.34;6285180;22;20203;-90
2022/04/05 05:51:10;;;;;;;29.90;14.10;;;;;;;7.97;67.25;96848.69;6237358;22;20204;-88
2022/04/05 05:53:37;;;;;;;21.73;13.77;;;;;;;8.38;67.04;96862.56;6254052;22;20526;-96
2022/04/05 05:56:05;;;;;;;21.83;12.13;;;;;;;8.64;64.88;96882.16;6249381;22;20214;-94
2022/04/05 05:58:34;;;;;;;20.87;12.10;;;;;;;8.93;64.08;96879.22;6277399;22;20278;-94
2022/04/05 06:01:01;;;;;;;24.20;16.50;;;;;;;8.95;63.78;96849.00;6276616;22;20206;-94
2022/04/05 06:03:32;;;;;;;19.47;12.93;;;;;;;9.10;62.61;96843.19;6276006;22;20175;-92
2022/04/05 06:06:04;;;;;;;18.17;12.47;;;;;;;9.26;62.54;96831.28;6266968;22;20168;-89
2022/04/05 06:08:32;;;;;;;19.70;12.47;;;;;;;9.65;61.92;96868.28;6280336;22;20601;-95
2022/04/05 06:11:01;;;;;;;18.40;11.50;;;;;;;9.80;60.85;96846.91;6278887;22;20173;-95
2022/04/05 06:13:30;;;;;;;20.60;12.40;;;;;;;9.69;60.45;96802.59;6278100;22;20262;-96
2022/04/05 06:15:59;;;;;;;22.63;13.87;;;;;;;10.13;59.86;96877.31;6276661;22;20494;-94
2022/04/05 06:18:30;;;;;;;30.10;13.70;;;;;;;9.63;59.98;96800.28;6252002;22;20184;-93
2022/04/05 06:21:02;;;;;;;20.07;12.73;;;;;;;10.25;59.04;96872.41;6280587;22;20165;-93
2022/04/05 06:23:31;;;;;;;22.07;15.07;;;;;;;10.41;58.61;96863.00;6283650;22;20266;-92
2022/04/05 06:26:02;;;;;;;24.20;15.83;;;;;;;10.04;59.05;96837.16;6251484;22;20235;-91
2022/04/05 06:28:32;;;;;;;22.07;13.70;;;;;;;10.17;59.54;96859.00;6279074;22;20188;-93
2022/04/05 06:31:06;;;;;;;21.93;13.10;;;;;;;10.41;58.32;96855.25;6280749;22;20192;-89
2022/04/05 06:33:34;;;;;;;20.93;14.27;;;;;;;10.41;57.86;96831.09;6278764;22;20164;-87
2022/04/05 06:36:04;;;;;;;25.73;15.20;;;;;;;10.75;58.23;96851.84;6250912;22;20188;-86
2022/04/05 06:38:32;;;;;;;20.47;12.73;;;;;;;11.05;57.86;96859.84;6232216;22;20213;-93
2022/04/05 06:41:10;;;;;;;20.23;13.37;;;;;;;11.04;56.61;96840.88;6260906;22;20161;-92
2022/04/05 06:43:39;;;;;;;20.20;13.53;;;;;;;11.18;56.43;96869.53;6283715;22;20218;-96
2022/04/05 06:46:07;;;;;;;23.10;12.97;;;;;;;10.87;56.42;96825.34;6255672;22;20168;-91
2022/04/05 06:48:34;;;;;;;28.13;12.07;;;;;;;10.74;56.53;96834.63;6256841;22;20246;-91
2022/04/05 06:51:06;;;;;;;20.17;12.17;;;;;;;10.95;56.74;96862.06;6285022;22;20200;-88
2022/04/05 06:53:41;;;;;;;21.60;13.70;;;;;;;11.07;56.88;96848.47;6238349;22;20164;-94
2022/04/05 06:56:12;;;;;;;19.03;11.97;;;;;;;10.71;57.07;96839.97;6285397;22;20181;-93
2022/04/05 06:58:40;;;;;;;21.63;12.73;;;;;;;10.64;57.46;96836.00;6278868;22;20168;-88
2022/04/05 07:01:09;;;;;;;18.43;11.33;;;;;;;10.48;57.06;96833.34;6253599;22;20168;-85
2022/04/05 07:03:37;;;;;;;14.47;10.03;;;;;;;10.57;57.39;96838.03;6263634;22;20199;-85
2022/04/05 07:06:06;;;;;;;17.17;10.33;;;;;;;10.70;57.62;96853.81;6296178;22;20166;-91
2022/04/05 07:08:36;;;;;;;23.73;9.73;;;;;;;10.69;57.66;96867.69;6288650;22;20234;-88
2022/04/05 07:11:07;;;;;;;13.33;8.57;;;;;;;10.47;57.88;96847.19;6270804;22;20168;-90
2022/04/05 07:13:35;;;;;;;15.97;9.53;;;;;;;10.43;57.66;96842.22;6295767;22;20171;-95
2022/04/05 07:16:06;;;;;;;14.03;9.03;;;;;;;10.53;57.16;96846.88;6295547;22;20165;-91
2022/04/05 07:18:36;;;;;;;21.63;10.37;;;;;;;10.46;57.66;96831.72;6236978;22;20237;-90
2022/04/05 07:21:06;;;;;;;14.33;9.63;;;;;;;10.67;56.79;96832.44;6295345;22;20156;-87
2022/04/05 07:23:38;;;;;;;12.47;9.60;;;;;;;10.44;56.86;96816.28;6293257;22;20187;-89
2022/04/05 07:26:07;;;;;;;14.23;10.10;;;;;;;10.71;57.20;96850.34;6292893;22;20221;-85
2022/04/05 07:28:36;;;;;;;16.03;10.87;;;;;;;10.76;57.79;96865.66;6295121;22;20170;-87
2022/04/05 07:31:04;;;;;;;13.30;9.83;;;;;;;10.63;57.88;96821.41;6295629;22;20162;-88
2022/04/05 07:33:35;;;;;;;15.10;10.27;;;;;;;10.36;58.90;96864.16;6266912;22;20176;-92
2022/04/05 07:36:03;;;;;;;13.50;9.63;;;;;;;10.67;58.31;96833.28;6229332;22;20192;-96
2022/04/05 07:38:31;;;;;;;24.10;9.60;;;;;;;10.14;59.24;96840.22;6229644;22;20173;-92
2022/04/05 07:41:00;;;;;;;14.70;10.27;;;;;;;9.89;59.22;96817.19;6251825;22;20169;-96
2022/04/05 07:43:30;;;;;;;15.47;9.67;;;;;;;10.25;60.42;96864.66;6277038;22;20225;-91
2022/04/05 07:46:04;;;;;;;15.83;9.57;;;;;;;10.62;57.85;96863.72;6252945;22;20265;-91
2022/04/05 07:48:32;;;;;;;14.43;9.60;;;;;;;10.74;58.18;96846.75;6280567;22;20225;-93
2022/04/05 07:51:03;;;;;;;17.47;10.17;;;;;;;11.35;56.15;96860.88;6227480;22;20209;-91
2022/04/05 07:53:33;;;;;;;17.37;11.07;;;;;;;11.79;55.64;96862.00;6251945;22;20232;-88
2022/04/05 07:56:02;;;;;;;12.23;9.27;;;;;;;10.81;56.17;96835.16;6251113;22;20187;-92
2022/04/05 07:58:30;;;;;;;12.67;9.70;;;;;;;10.29;59.48;96824.78;6280333;22;20166;-94
2022/04/05 08:00:59;;;;;;;15.97;9.93;;;;;;;10.71;58.26;96829.63;6226881;22;20177;-95
2022/04/05 08:03:31;;;;;;;12.57;9.63;;;;;;;10.86;57.78;96857.31;6293945;22;20171;-90
2022/04/05 08:06:02;;;;;;;17.10;9.63;;;;;;;11.28;57.28;96842.22;6278598;22;20200;-94
2022/04/05 08:08:30;;;;;;;11.10;8.60;;;;;;;11.10;56.45;96837.97;6252449;22;20172;-92
2022/04/05 08:11:18;;;;;;;14.43;9.53;;;;;;;11.11;56.17;96785.22;6278868;22;20161;-96
2022/04/05 08:13:58;;;;;;;12.67;9.60;;;;;;;11.46;56.50;96835.22;6279710;22;20697;-95
2022/04/05 08:16:28;;;;;;;16.80;10.13;;;;;;;11.54;56.95;96842.63;6278731;22;20163;-95
2022/04/05 08:18:58;;;;;;;12.87;8.67;;;;;;;11.48;56.57;96808.28;6282305;22;20224;-94
2022/04/05 08:21:30;;;;;;;15.90;10.07;;;;;;;11.91;55.61;96829.38;6256016;22;20163;-87
2022/04/05 08:23:57;;;;;;;13.40;9.83;;;;;;;11.68;56.85;96809.03;6255229;22;20196;-88
2022/04/05 08:26:25;;;;;;;14.47;10.30;;;;;;;12.04;57.03;96833.81;6277288;22;20619;-91
2022/04/05 08:28:56;;;;;;;13.77;9.30;;;;;;;12.36;53.43;96798.28;6254510;22;20196;-91
2022/04/05 08:31:24;;;;;;;13.63;9.10;;;;;;;12.74;52.53;96817.69;6281768;22;20239;-92
2022/04/05 08:33:53;;;;;;;18.27;9.60;;;;;;;12.80;52.09;96788.75;6282701;22;20682;-94
2022/04/05 08:36:21;;;;;;;15.33;9.77;;;;;;;12.78;52.44;96806.19;6287325;22;20178;-95
2022/04/05 08:38:49;;;;;;;14.20;8.73;;;;;;;12.85;51.90;96791.09;6256234;22;20174;-95
2022/04/05 08:41:29;;;;;;;14.53;11.00;;;;;;;12.56;53.33;96759.00;6253141;22;20176;-96
2022/04/05 08:44:01;;;;;;;12.13;8.87;;;;;;;12.46;52.25;96796.84;6279383;22;20185;-92
2022/04/05 08:46:42;;;;;;;10.53;7.40;;;;;;;12.58;49.55;96762.34;6249667;22;20173;-87
2022/04/05 08:49:14;;;;;;;12.93;9.30;;;;;;;12.44;50.42;96723.38;6251307;22;20225;-84
2022/04/05 08:51:41;;;;;;;12.40;8.07;;;;;;;12.76;48.92;96782.06;6223752;22;20219;-86
2022/04/05 08:54:08;;;;;;;8.67;6.00;;;;;;;13.19;47.35;96787.38;6273539;22;20169;-87
2022/04/05 08:56:35;;;;;;;9.67;6.23;;;;;;;13.27;46.43;96782.53;6274537;22;20163;-86
2022/04/05 08:59:05;;;;;;;9.40;6.07;;;;;;;13.18;46.79;96788.28;6273427;22;20168;-86
2022/04/05 09:01:35;;;;;;;7.87;4.73;;;;;;;13.01;45.53;96782.31;6272423;22;20234;-85
2022/04/05 09:04:04;;;;;;;7.30;5.47;;;;;;;13.12;45.74;96758.28;6282051;22;20169;-86
2022/04/05 09:06:36;;;;;;;7.20;5.47;;;;;;;13.28;44.59;96737.38;6274332;22;20583;-85
2022/04/05 09:09:12;;;;;;;7.07;5.10;;;;;;;12.60;46.13;96744.91;6272112;22;20202;-84
2022/04/05 09:11:53;;;;;;;8.33;5.83;;;;;;;12.93;46.17;96779.31;6273736;22;20178;-86
2022/04/05 09:14:27;;;;;;;7.50;5.63;;;;;;;13.11;46.11;96771.41;6249358;22;20521;-86
2022/04/05 09:17:12;;;;;;;8.87;5.83;;;;;;;13.04;45.75;96763.94;6272584;22;20566;-88
2022/04/05 09:19:47;;;;;;;9.07;6.07;;;;;;;13.33;45.72;96758.75;6286308;22;20212;-87
2022/04/05 09:22:33;;;;;;;9.70;6.90;;;;;;;13.75;45.38;96763.91;6232243;22;20171;-86
2022/04/05 09:25:23;;;;;;;8.80;6.10;;;;;;;13.84;45.24;96735.53;6277479;22;20694;-92
2022/04/05 09:27:56;;;;;;;9.17;7.30;;;;;;;13.85;44.83;96728.53;6237370;22;20513;-95
2022/04/05 09:30:37;;;;;;;9.77;6.30;;;;;;;13.97;44.81;96716.53;6273754;22;20200;-88
2022/04/05 09:33:12;;;;;;;10.07;6.20;;;;;;;13.92;45.96;96747.22;6275601;22;20579;-91
2022/04/05 09:35:44;;;;;;;9.53;6.87;;;;;;;13.91;45.87;96735.16;6246528;22;20172;-90
2022/04/05 09:38:18;;;;;;;9.43;6.10;;;;;;;13.75;45.58;96702.28;6273954;22;20511;-89
2022/04/05 09:40:52;;;;;;;8.80;6.33;;;;;;;13.91;45.44;96743.78;6246540;22;20176;-88
2022/04/05 09:43:30;;;;;;;8.33;6.83;;;;;;;13.80;46.59;96738.44;6248016;22;20279;-90
2022/04/05 09:46:05;;;;;;;8.63;6.47;;;;;;;13.90;45.69;96739.50;6247923;22;20165;-91
2022/04/05 09:48:36;;;;;;;8.00;6.07;;;;;;;13.45;46.46;96732.00;6274353;22;20225;-94
2022/04/05 09:51:12;;;;;;;12.03;6.20;;;;;;;13.24;46.51;96709.91;6222762;22;20224;-94
2022/04/05 09:53:50;;;;;;;12.43;6.63;;;;;;;13.83;46.01;96735.63;6275395;22;20167;-91
2022/04/05 09:56:34;;;;;;;7.33;5.57;;;;;;;14.14;44.35;96693.66;6274865;22;20191;-94
2022/04/05 09:59:18;;;;;;;9.87;6.13;;;;;;;14.39;44.85;96727.63;6247439;22;20613;-88
2022/04/05 10:01:47;;;;;;;8.50;5.70;;;;;;;14.60;44.31;96715.78;6278426;22;20318;-92
2022/04/05 10:04:17;;;;;;;9.03;5.93;;;;;;;14.81;42.65;96689.22;6296280;22;20168;-90
2022/04/05 10:06:48;;;;;;;6.77;5.20;;;;;;;14.82;41.45;96712.56;6253833;22;20195;-94
2022/04/05 10:09:21;;;;;;;7.23;6.00;;;;;;;14.59;42.53;96706.28;6275462;22;20246;-95
2022/04/05 10:11:50;;;;;;;6.60;5.27;;;;;;;14.36;42.16;96680.91;6247298;22;20161;-95
2022/04/05 10:14:20;;;;;;;7.23;5.73;;;;;;;14.39;41.82;96685.09;6275041;22;20226;-92
2022/04/05 10:16:52;;;;;;;5.53;4.40;;;;;;;14.37;41.53;96706.06;6274963;22;20169;-95
2022/04/05 10:19:22;;;;;;;6.90;5.03;;;;;;;14.62;41.48;96680.03;6225591;22;20173;-87
2022/04/05 10:21:51;;;;;;;6.43;4.83;;;;;;;15.00;40.57;96687.81;6249370;22;20215;-91
2022/04/05 10:24:20;;;;;;;6.97;5.27;;;;;;;14.82;41.01;96663.03;6275542;22;20180;-95
2022/04/05 10:26:49;;;;;;;7.67;5.10;;;;;;;14.95;41.28;96679.50;6282418;22;20171;-91
2022/04/05 10:29:19;;;;;;;6.43;5.40;;;;;;;14.91;40.92;96672.00;6246798;22;20172;-93
2022/04/05 10:32:11;;;;;;;5.43;4.30;;;;;;;15.32;40.15;96680.38;6274593;22;20160;-91
2022/04/05 10:34:55;;;;;;;7.00;4.93;;;;;;;15.40;39.00;96638.94;6221421;22;20186;-91
2022/04/05 10:37:34;;;;;;;7.17;4.40;;;;;;;15.83;38.89;96675.88;6247406;22;20222;-92
2022/04/05 10:40:20;;;;;;;5.50;4.67;;;;;;;15.81;37.69;96662.94;6248715;22;20302;-91
2022/04/05 10:42:53;;;;;;;8.77;6.87;;;;;;;15.84;38.32;96656.66;6247542;22;20175;-95
2022/04/05 10:45:29;;;;;;;6.90;5.77;;;;;;;15.91;38.83;96668.34;6247660;22;20170;-93
2022/04/05 10:48:06;;;;;;;7.63;4.53;;;;;;;16.08;36.43;96660.06;6274579;22;20165;-94
2022/04/05 10:51:02;;;;;;;7.57;5.53;;;;;;;16.27;36.86;96665.63;6275402;22;20789;-93
2022/04/05 10:53:41;;;;;;;9.30;4.87;;;;;;;16.28;36.83;96652.44;6275863;22;20183;-88
2022/04/05 10:56:12;;;;;;;5.33;4.53;;;;;;;16.37;35.72;96640.47;6274329;22;20179;-85
2022/04/05 10:58:48;;;;;;;6.30;5.57;;;;;;;16.23;36.88;96645.88;6274741;22;20257;-91
2022/04/05 11:01:19;;;;;;;5.93;5.30;;;;;;;15.84;37.64;96562.66;6247033;22;20192;-94
2022/04/05 11:06:58;;;;;;;10.27;5.40;;;;;;;16.50;36.27;96629.94;6281789;22;20506;-94
2022/04/05 11:09:28;;;;;;;6.23;4.70;;;;;;;15.59;36.99;96609.75;6273935;22;20614;-91
2022/04/05 11:11:56;;;;;;;6.40;4.50;;;;;;;15.30;36.26;96604.00;6275484;22;20161;-92
2022/04/05 11:14:47;;;;;;;6.23;4.70;;;;;;;15.14;37.29;96624.28;6275670;22;20604;-93
2022/04/05 11:17:15;;;;;;;7.07;4.53;;;;;;;15.51;38.53;96618.16;6247495;22;20256;-90
2022/04/05 11:19:47;;;;;;;9.47;7.13;;;;;;;15.66;37.97;96580.47;6292464;22;20167;-90
2022/04/05 11:22:19;;;;;;;7.60;4.50;;;;;;;16.18;37.67;96609.66;6277936;22;20161;-92
2022/04/05 11:24:57;;;;;;;6.87;5.40;;;;;;;16.56;37.03;96604.19;6248243;22;20600;-88
2022/04/05 11:27:29;;;;;;;6.03;4.57;;;;;;;16.69;37.00;96604.88;6246397;22;20156;-91
2022/04/05 11:30:28;;;;;;;7.50;4.90;;;;;;;16.71;36.62;96595.13;6246113;22;20948;-86
2022/04/05 11:33:16;;;;;;;7.90;5.20;;;;;;;16.42;35.98;96593.91;6247968;22;20199;-92
2022/04/05 11:35:51;;;;;;;4.50;4.10;;;;;;;16.21;35.93;96543.28;6273114;22;20526;-90
2022/04/05 11:38:19;;;;;;;5.07;4.40;;;;;;;16.59;35.54;96585.63;6274348;22;20167;-94
2022/04/05 11:41:03;;;;;;;6.70;5.00;;;;;;;16.80;33.99;96596.22;6246207;22;20178;-92
2022/04/05 11:43:43;;;;;;;5.70;5.07;;;;;;;16.65;34.10;96561.63;6246789;22;20223;-91
2022/04/05 11:46:15;;;;;;;7.00;4.47;;;;;;;16.70;33.37;96579.56;6246352;22;20165;-93
2022/04/05 11:48:50;;;;;;;6.90;4.57;;;;;;;16.36;33.57;96575.25;6274410;22;20193;-92